createdAt,value
2019-02-11T00:01:38.925Z,97227.00
2019-02-11T00:04:15.719Z,97231.00
2019-02-11T00:06:52.481Z,97243.00
2019-02-11T00:09:29.261Z,97239.00
2019-02-11T00:12:05.923Z,97248.00
2019-02-11T00:14:42.715Z,97258.00
2019-02-11T00:17:19.582Z,97252.00
2019-02-11T00:19:56.364Z,97238.00
2019-02-11T00:22:33.246Z,97263.00
2019-02-11T00:25:10.025Z,97257.00
2019-02-11T00:27:46.765Z,97263.00
2019-02-11T00:30:23.568Z,97255.00
2019-02-11T00:33:00.433Z,97258.00
2019-02-11T00:35:37.328Z,97247.00
2019-02-11T00:38:14.096Z,97253.00
2019-02-11T00:40:50.878Z,97269.00
2019-02-11T00:43:27.642Z,97245.00
2019-02-11T00:46:04.420Z,97266.00
2019-02-11T00:48:41.615Z,97274.00
2019-02-11T00:51:18.373Z,97280.00
2019-02-11T00:53:55.149Z,97285.00
2019-02-11T00:56:32.145Z,97286.00
2019-02-11T00:59:08.921Z,97257.00
2019-02-11T01:01:45.896Z,97271.00
2019-02-11T01:04:22.666Z,97280.00
2019-02-11T01:06:59.450Z,97271.00
2019-02-11T01:09:36.223Z,97260.00
2019-02-11T01:12:13.109Z,97247.00
2019-02-11T01:14:49.874Z,97240.00
2019-02-11T01:17:27.067Z,97241.00
2019-02-11T01:20:04.252Z,97230.00
2019-02-11T01:22:41.127Z,97240.00
2019-02-11T01:25:17.897Z,97238.00
2019-02-11T01:27:55.706Z,97240.00
2019-02-11T01:30:32.472Z,97235.00
2019-02-11T01:33:09.356Z,97238.00
2019-02-11T01:35:46.232Z,97224.00
2019-02-11T01:38:23.011Z,97215.00
2019-02-11T01:41:00.814Z,97202.00
2019-02-11T01:43:38.604Z,97200.00
2019-02-11T01:46:15.371Z,97214.00
2019-02-11T01:48:52.167Z,97216.00
2019-02-11T01:51:28.931Z,97214.00
2019-02-11T01:54:05.714Z,97211.00
2019-02-11T01:56:42.527Z,97229.00
2019-02-11T01:59:19.253Z,97213.00
2019-02-11T02:01:56.144Z,97218.00
2019-02-11T02:04:32.916Z,97222.00
2019-02-11T02:07:09.694Z,97210.00
2019-02-11T02:09:46.389Z,97242.00
2019-02-11T02:12:23.246Z,97232.00
2019-02-11T02:15:00.018Z,97212.00
2019-02-11T02:17:36.789Z,97237.00
2019-02-11T02:20:15.305Z,97228.00
2019-02-11T02:22:52.182Z,97244.00
2019-02-11T02:25:28.967Z,97239.00
2019-02-11T02:28:05.832Z,97227.00
2019-02-11T02:30:43.439Z,97218.00
2019-02-11T02:33:20.352Z,97220.00
2019-02-11T02:35:57.184Z,97212.00
2019-02-11T02:38:33.970Z,97222.00
2019-02-11T02:41:11.158Z,97222.00
2019-02-11T02:43:55.107Z,97231.00
2019-02-11T02:46:26.439Z,97243.00
2019-02-11T02:49:03.219Z,97248.00
2019-02-11T02:51:39.991Z,97242.00
2019-02-11T02:54:16.769Z,97224.00
2019-02-11T02:56:53.545Z,97230.00
2019-02-11T02:59:30.324Z,97227.00
2019-02-11T03:02:07.085Z,97225.00
2019-02-11T03:04:45.057Z,97235.00
2019-02-11T03:07:21.881Z,97243.00
2019-02-11T03:09:58.649Z,97243.00
2019-02-11T03:12:36.873Z,97260.00
2019-02-11T03:15:13.635Z,97253.00
2019-02-11T03:17:50.305Z,97245.00
2019-02-11T03:20:27.084Z,97236.00
2019-02-11T03:23:03.850Z,97262.00
2019-02-11T03:25:40.634Z,97246.00
2019-02-11T03:28:17.410Z,97247.00
2019-02-11T03:30:54.194Z,97257.00
2019-02-11T03:33:31.071Z,97244.00
2019-02-11T03:36:07.845Z,97242.00
2019-02-11T03:38:45.028Z,97253.00
2019-02-11T03:41:22.518Z,97245.00
2019-02-11T03:43:59.294Z,97252.00
2019-02-11T03:46:36.076Z,97245.00
2019-02-11T03:49:13.152Z,97261.00
2019-02-11T03:51:50.027Z,97249.00
2019-02-11T03:54:26.812Z,97253.00
2019-02-11T03:57:03.577Z,97267.00
2019-02-11T03:59:40.362Z,97264.00
2019-02-11T04:02:17.239Z,97279.00
2019-02-11T04:04:54.009Z,97278.00
2019-02-11T04:07:30.792Z,97270.00
2019-02-11T04:10:10.689Z,97291.00
2019-02-11T04:12:48.530Z,97289.00
2019-02-11T04:15:25.309Z,97283.00
2019-02-11T04:18:02.074Z,97269.00
2019-02-11T04:20:38.859Z,97269.00
2019-02-11T04:23:15.731Z,97268.00
2019-02-11T04:25:52.510Z,97272.00
2019-02-11T04:28:29.309Z,97294.00
2019-02-11T04:31:06.056Z,97277.00
2019-02-11T04:33:42.942Z,97285.00
2019-02-11T04:36:19.713Z,97274.00
2019-02-11T04:38:56.501Z,97277.00
2019-02-11T04:41:33.360Z,97252.00
2019-02-11T04:44:10.155Z,97244.00
2019-02-11T04:46:46.929Z,97253.00
2019-02-11T04:49:23.623Z,97243.00
2019-02-11T04:52:00.677Z,97239.00
2019-02-11T04:54:37.446Z,97248.00
2019-02-11T04:57:14.222Z,97275.00
2019-02-11T04:59:50.997Z,97257.00
2019-02-11T05:02:27.890Z,97290.00
2019-02-11T05:05:05.811Z,97289.00
2019-02-11T05:07:42.567Z,97275.00
2019-02-11T05:10:19.345Z,97273.00
2019-02-11T05:12:56.123Z,97292.00
2019-02-11T05:15:32.774Z,97303.00
2019-02-11T05:18:09.559Z,97302.00
2019-02-11T05:20:46.653Z,97292.00
2019-02-11T05:23:23.375Z,97308.00
2019-02-11T05:26:00.200Z,97304.00
2019-02-11T05:28:36.968Z,97324.00
2019-02-11T05:31:13.740Z,97329.00
2019-02-11T05:33:50.615Z,97331.00
2019-02-11T05:36:27.385Z,97327.00
2019-02-11T05:39:05.492Z,97326.00
2019-02-11T05:41:42.283Z,97331.00
2019-02-11T05:44:19.360Z,97337.00
2019-02-11T05:46:56.020Z,97346.00
2019-02-11T05:49:32.719Z,97326.00
2019-02-11T05:52:09.446Z,97337.00
2019-02-11T05:54:46.640Z,97336.00
2019-02-11T05:57:23.306Z,97344.00
2019-02-11T06:00:00.463Z,97335.00
2019-02-11T06:02:37.410Z,97329.00
2019-02-11T06:05:14.185Z,97331.00
2019-02-11T06:07:50.961Z,97323.00
2019-02-11T06:10:27.731Z,97322.00
2019-02-11T06:13:04.605Z,97326.00
2019-02-11T06:15:41.386Z,97317.00
2019-02-11T06:18:18.777Z,97306.00
2019-02-11T06:20:55.965Z,97311.00
2019-02-11T06:23:32.833Z,97330.00
2019-02-11T06:26:09.610Z,97344.00
2019-02-11T06:28:46.384Z,97350.00
2019-02-11T06:31:23.177Z,97351.00
2019-02-11T06:33:59.891Z,97365.00
2019-02-11T06:36:36.721Z,97375.00
2019-02-11T06:39:13.492Z,97380.00
2019-02-11T06:41:50.279Z,97395.00
2019-02-11T06:44:27.034Z,97397.00
2019-02-11T06:47:03.713Z,97411.00
2019-02-11T06:49:40.497Z,97396.00
2019-02-11T06:52:17.272Z,97395.00
2019-02-11T06:54:54.039Z,97395.00
2019-02-11T06:57:30.812Z,97406.00
2019-02-11T07:00:13.855Z,97417.00
2019-02-11T07:02:51.033Z,97399.00
2019-02-11T07:05:27.801Z,97414.00
2019-02-11T07:08:04.464Z,97414.00
2019-02-11T07:10:41.243Z,97423.00
2019-02-11T07:13:18.031Z,97426.00
2019-02-11T07:15:54.806Z,97430.00
2019-02-11T07:18:31.466Z,97433.00
2019-02-11T07:21:08.660Z,97432.00
2019-02-11T07:23:45.489Z,97434.00
2019-02-11T07:26:22.624Z,97440.00
2019-02-11T07:28:59.385Z,97440.00
2019-02-11T07:31:36.177Z,97446.00
2019-02-11T07:34:12.946Z,97444.00
2019-02-11T07:36:49.612Z,97469.00
2019-02-11T07:39:26.392Z,97482.00
2019-02-11T07:42:16.799Z,97469.00
2019-02-11T07:44:54.590Z,97501.00
2019-02-11T07:47:31.774Z,97499.00
2019-02-11T07:50:08.863Z,97517.00
2019-02-11T07:52:46.049Z,97512.00
2019-02-11T07:55:22.812Z,97529.00
2019-02-11T07:57:59.593Z,97499.00
2019-02-11T08:00:36.370Z,97505.00
2019-02-11T08:03:13.250Z,97499.00
2019-02-11T08:05:49.910Z,97497.00
2019-02-11T08:08:26.690Z,97485.00
2019-02-11T08:11:04.391Z,97476.00
2019-02-11T08:13:41.270Z,97489.00
2019-02-11T08:16:18.061Z,97486.00
2019-02-11T08:18:54.914Z,97485.00
2019-02-11T08:21:49.580Z,97493.00
2019-02-11T08:24:26.297Z,97505.00
2019-02-11T08:27:03.282Z,97491.00
2019-02-11T08:29:40.055Z,97491.00
2019-02-11T08:32:17.542Z,97509.00
2019-02-11T08:34:54.226Z,97495.00
2019-02-11T08:37:30.992Z,97516.00
2019-02-11T08:40:09.985Z,97514.00
2019-02-11T08:42:47.705Z,97564.00
2019-02-11T08:45:24.481Z,97577.00
2019-02-11T08:48:01.159Z,97527.00
2019-02-11T08:50:37.930Z,97531.00
2019-02-11T08:53:14.624Z,97534.00
2019-02-11T08:55:51.395Z,97521.00
2019-02-11T08:58:28.170Z,97527.00
2019-02-11T09:01:04.938Z,97537.00
2019-02-11T09:03:41.826Z,97540.00
2019-02-11T09:06:18.610Z,97538.00
2019-02-11T09:08:55.360Z,97550.00
2019-02-11T09:11:32.145Z,97553.00
2019-02-11T09:14:08.864Z,97588.00
2019-02-11T09:16:45.551Z,97559.00
2019-02-11T09:19:22.375Z,97571.00
2019-02-11T09:22:07.111Z,97576.00
2019-02-11T09:24:37.770Z,97580.00
2019-02-11T09:27:14.646Z,97562.00
2019-02-11T09:29:51.423Z,97593.00
2019-02-11T09:32:28.301Z,97586.00
2019-02-11T09:35:05.984Z,97585.00
2019-02-11T09:37:42.768Z,97591.00
2019-02-11T09:40:19.539Z,97610.00
2019-02-11T09:42:57.450Z,97585.00
2019-02-11T09:45:34.220Z,97598.00
2019-02-11T09:48:10.991Z,97612.00
2019-02-11T09:50:49.381Z,97644.00
2019-02-11T09:53:26.487Z,97648.00
2019-02-11T09:56:03.260Z,97652.00
2019-02-11T09:58:40.035Z,97674.00
2019-02-11T10:01:16.816Z,97661.00
2019-02-11T10:03:53.704Z,97679.00
2019-02-11T10:06:30.479Z,97686.00
2019-02-11T10:09:07.264Z,97679.00
2019-02-11T10:11:45.042Z,97691.00
2019-02-11T10:14:21.815Z,97683.00
2019-02-11T10:16:58.603Z,97692.00
2019-02-11T10:19:35.364Z,97689.00
2019-02-11T10:22:12.245Z,97687.00
2019-02-11T10:24:50.555Z,97677.00
2019-02-11T10:27:27.334Z,97704.00
2019-02-11T10:30:05.861Z,97703.00
2019-02-11T10:32:42.633Z,97704.00
2019-02-11T10:35:19.725Z,97718.00
2019-02-11T10:37:56.702Z,97711.00
2019-02-11T10:40:33.475Z,97723.00
2019-02-11T10:43:10.359Z,97731.00
2019-02-11T10:45:47.132Z,97727.00
2019-02-11T10:48:25.433Z,97725.00
2019-02-11T10:51:02.331Z,97748.00
2019-02-11T10:53:39.186Z,97748.00
2019-02-11T10:56:15.967Z,97745.00
2019-02-11T10:58:52.738Z,97747.00
2019-02-11T11:01:29.628Z,97739.00
2019-02-11T11:04:06.402Z,97761.00
2019-02-11T11:06:43.178Z,97768.00
2019-02-11T11:09:20.046Z,97775.00
2019-02-11T11:11:56.828Z,97771.00
2019-02-11T11:14:34.716Z,97774.00
2019-02-11T11:17:12.526Z,97794.00
2019-02-11T11:19:49.405Z,97803.00
2019-02-11T11:22:26.340Z,97800.00
2019-02-11T11:25:03.167Z,97823.00
2019-02-11T11:27:39.930Z,97820.00
2019-02-11T11:30:18.193Z,97826.00
2019-02-11T11:32:55.450Z,97836.00
2019-02-11T11:35:32.204Z,97843.00
2019-02-11T11:38:08.979Z,97864.00
2019-02-11T11:40:45.750Z,97859.00
2019-02-11T11:43:23.564Z,97857.00
2019-02-11T11:46:00.323Z,97871.00
2019-02-11T11:48:37.112Z,97871.00
2019-02-11T11:51:13.891Z,97882.00
2019-02-11T11:53:50.654Z,97890.00
2019-02-11T11:56:27.441Z,97900.00
2019-02-11T11:59:04.206Z,97907.00
2019-02-11T12:01:41.006Z,97892.00
2019-02-11T12:04:17.754Z,97897.00
2019-02-11T12:06:54.532Z,97884.00
2019-02-11T12:09:31.348Z,97877.00
2019-02-11T12:12:08.397Z,97867.00
2019-02-11T12:14:45.171Z,97857.00
2019-02-11T12:17:22.866Z,97862.00
2019-02-11T12:19:59.855Z,97870.00
2019-02-11T12:22:36.734Z,97890.00
2019-02-11T12:25:16.173Z,97882.00
2019-02-11T12:27:52.948Z,97897.00
2019-02-11T12:30:29.739Z,97900.00
2019-02-11T12:33:06.792Z,97917.00
2019-02-11T12:35:43.577Z,97923.00
2019-02-11T12:38:20.356Z,97932.00
2019-02-11T12:40:57.102Z,97942.00
2019-02-11T12:43:33.811Z,97939.00
2019-02-11T12:46:10.585Z,97937.00
2019-02-11T12:48:47.348Z,97937.00
2019-02-11T12:51:24.242Z,97980.00
2019-02-11T12:54:01.006Z,97979.00
2019-02-11T12:56:37.769Z,97968.00
2019-02-11T12:59:14.553Z,97961.00
2019-02-11T13:01:51.336Z,97955.00
2019-02-11T13:04:29.638Z,97982.00
2019-02-11T13:07:06.429Z,97959.00
2019-02-11T13:09:43.308Z,97970.00
2019-02-11T13:12:20.069Z,97973.00
2019-02-11T13:14:56.947Z,97958.00
2019-02-11T13:17:35.018Z,97979.00
2019-02-11T13:20:15.113Z,97973.00
2019-02-11T13:22:51.993Z,98015.00
2019-02-11T13:25:28.871Z,98049.00
2019-02-11T13:28:05.650Z,98015.00
2019-02-11T13:30:42.413Z,98048.00
2019-02-11T13:33:19.207Z,98004.00
2019-02-11T13:35:55.968Z,98006.00
2019-02-11T13:38:32.644Z,98007.00
2019-02-11T13:41:09.526Z,98021.00
2019-02-11T13:43:51.160Z,98013.00
2019-02-11T13:46:27.995Z,98059.00
2019-02-11T13:49:04.776Z,98055.00
2019-02-11T13:51:41.549Z,98066.00
2019-02-11T13:54:18.309Z,98074.00
2019-02-11T13:56:54.996Z,98070.00
2019-02-11T13:59:32.085Z,98064.00
2019-02-11T14:02:08.742Z,98059.00
2019-02-11T14:04:45.471Z,98072.00
2019-02-11T14:07:22.193Z,98084.00
2019-02-11T14:10:02.038Z,98062.00
2019-02-11T14:12:37.597Z,98088.00
2019-02-11T14:15:15.061Z,98089.00
2019-02-11T14:18:09.408Z,98082.00
2019-02-11T14:20:31.294Z,98075.00
2019-02-11T14:23:08.068Z,98110.00
2019-02-11T14:25:47.200Z,98119.00
2019-02-11T14:28:23.262Z,98130.00
2019-02-11T14:31:00.349Z,98121.00
2019-02-11T14:33:37.424Z,98158.00
2019-02-11T14:36:14.617Z,98131.00
2019-02-11T14:38:51.809Z,98144.00
2019-02-11T14:41:28.864Z,98142.00
2019-02-11T14:44:05.961Z,98146.00
2019-02-11T14:46:42.930Z,98154.00
2019-02-11T14:49:20.025Z,98162.00
2019-02-11T14:51:57.203Z,98173.00
2019-02-11T14:54:34.176Z,98166.00
2019-02-11T14:57:11.450Z,98173.00
2019-02-11T14:59:48.357Z,98179.00
2019-02-11T15:02:25.228Z,98210.00
2019-02-11T15:05:02.069Z,98206.00
2019-02-11T15:07:39.086Z,98203.00
2019-02-11T15:10:16.255Z,98228.00
2019-02-11T15:12:53.040Z,98221.00
2019-02-11T15:15:29.817Z,98250.00
2019-02-11T15:18:06.604Z,98256.00
2019-02-11T15:20:44.286Z,98247.00
2019-02-11T15:23:21.169Z,98259.00
2019-02-11T15:25:57.944Z,98273.00
2019-02-11T15:28:34.727Z,98279.00
2019-02-11T15:31:11.497Z,98283.00
2019-02-11T15:33:48.375Z,98306.00
2019-02-11T15:36:25.151Z,98312.00
2019-02-11T15:39:01.933Z,98284.00
2019-02-11T15:41:40.350Z,98271.00
2019-02-11T15:44:17.087Z,98267.00
2019-02-11T15:46:53.886Z,98279.00
2019-02-11T15:49:30.678Z,98248.00
2019-02-11T15:52:07.536Z,98263.00
2019-02-11T15:54:44.314Z,98268.00
2019-02-11T15:57:21.394Z,98269.00
2019-02-11T15:59:58.174Z,98286.00
2019-02-11T16:02:35.063Z,98287.00
2019-02-11T16:05:16.087Z,98297.00
2019-02-11T16:07:50.445Z,98304.00
2019-02-11T16:10:28.919Z,98320.00
2019-02-11T16:13:05.939Z,98322.00
2019-02-11T16:15:42.721Z,98319.00
2019-02-11T16:18:19.500Z,98339.00
2019-02-11T16:20:56.275Z,98346.00
2019-02-11T16:23:33.255Z,98369.00
2019-02-11T16:26:10.035Z,98351.00
2019-02-11T16:28:46.695Z,98386.00
2019-02-11T16:31:23.484Z,98381.00
2019-02-11T16:34:00.310Z,98373.00
2019-02-11T16:36:37.122Z,98384.00
2019-02-11T16:39:13.798Z,98390.00
2019-02-11T16:41:50.685Z,98395.00
2019-02-11T16:44:27.461Z,98379.00
2019-02-11T16:47:04.748Z,98409.00
2019-02-11T16:49:41.529Z,98411.00
2019-02-11T16:52:18.393Z,98422.00
2019-02-11T16:54:55.177Z,98431.00
2019-02-11T16:57:31.956Z,98424.00
2019-02-11T17:00:20.714Z,98450.00
2019-02-11T17:02:57.445Z,98475.00
2019-02-11T17:05:34.149Z,98476.00
2019-02-11T17:08:10.935Z,98474.00
2019-02-11T17:10:47.811Z,98492.00
2019-02-11T17:13:24.567Z,98515.00
2019-02-11T17:16:01.368Z,98497.00
2019-02-11T17:18:38.236Z,98510.00
2019-02-11T17:21:15.023Z,98538.00
2019-02-11T17:23:51.991Z,98563.00
2019-02-11T17:26:28.772Z,98541.00
2019-02-11T17:29:05.553Z,98524.00
2019-02-11T17:31:42.331Z,98531.00
2019-02-11T17:34:19.090Z,98547.00
2019-02-11T17:36:55.878Z,98545.00
2019-02-11T17:39:32.653Z,98556.00
2019-02-11T17:42:09.431Z,98556.00
2019-02-11T17:44:46.193Z,98564.00
2019-02-11T17:47:22.978Z,98579.00
2019-02-11T17:49:59.763Z,98584.00
2019-02-11T17:52:36.566Z,98577.00
2019-02-11T17:55:14.938Z,98598.00
2019-02-11T17:57:51.604Z,98588.00
2019-02-11T18:00:37.721Z,98612.00
2019-02-11T18:03:14.688Z,98597.00
2019-02-11T18:05:51.469Z,98612.00
2019-02-11T18:08:28.242Z,98619.00
2019-02-11T18:11:05.020Z,98619.00
2019-02-11T18:13:41.666Z,98626.00
2019-02-11T18:16:18.482Z,98610.00
2019-02-11T18:18:55.236Z,98633.00
2019-02-11T18:21:32.885Z,98640.00
2019-02-11T18:24:10.830Z,98636.00
2019-02-11T18:26:47.621Z,98640.00
2019-02-11T18:29:24.277Z,98643.00
2019-02-11T18:32:01.269Z,98650.00
2019-02-11T18:34:38.043Z,98661.00
2019-02-11T18:37:14.880Z,98664.00
2019-02-11T18:39:51.703Z,98663.00
2019-02-11T18:42:28.769Z,98668.00
2019-02-11T18:45:12.520Z,98670.00
2019-02-11T18:47:50.540Z,98661.00
2019-02-11T18:50:27.606Z,98699.00
2019-02-11T18:53:04.575Z,98682.00
2019-02-11T18:55:41.470Z,98679.00
2019-02-11T18:58:18.752Z,98677.00
2019-02-11T19:00:55.535Z,98680.00
2019-02-11T19:03:32.299Z,98683.00
2019-02-11T19:06:09.073Z,98701.00
2019-02-11T19:08:45.843Z,98707.00
2019-02-11T19:11:22.632Z,98688.00
2019-02-11T19:13:59.395Z,98680.00
2019-02-11T19:16:36.394Z,98680.00
2019-02-11T19:19:13.148Z,98678.00
2019-02-11T19:21:50.052Z,98680.00
2019-02-11T19:24:26.817Z,98686.00
2019-02-11T19:27:04.501Z,98700.00
2019-02-11T19:29:41.292Z,98699.00
2019-02-11T19:32:18.166Z,98691.00
2019-02-11T19:34:55.460Z,98685.00
2019-02-11T19:37:32.227Z,98677.00
2019-02-11T19:40:17.973Z,98681.00
2019-02-11T19:42:55.089Z,98673.00
2019-02-11T19:45:31.865Z,98681.00
2019-02-11T19:48:10.057Z,98681.00
2019-02-11T19:50:49.746Z,98697.00
2019-02-11T19:53:26.500Z,98696.00
2019-02-11T19:56:03.198Z,98705.00
2019-02-11T19:58:39.877Z,98718.00
2019-02-11T20:01:16.591Z,98704.00
2019-02-11T20:03:53.281Z,98712.00
2019-02-11T20:06:30.139Z,98734.00
2019-02-11T20:09:07.151Z,98740.00
2019-02-11T20:11:44.832Z,98743.00
2019-02-11T20:14:21.549Z,98741.00
2019-02-11T20:16:58.230Z,98729.00
2019-02-11T20:19:34.919Z,98735.00
2019-02-11T20:22:11.623Z,98758.00
2019-02-11T20:24:48.420Z,98774.00
2019-02-11T20:27:25.110Z,98775.00
2019-02-11T20:30:01.860Z,98787.00
2019-02-11T20:32:38.944Z,98776.00
2019-02-11T20:35:15.820Z,98795.00
2019-02-11T20:37:52.611Z,98783.00
2019-02-11T20:40:30.694Z,98788.00
2019-02-11T20:43:07.797Z,98792.00
2019-02-11T20:45:44.567Z,98779.00
2019-02-11T20:48:21.456Z,98780.00
2019-02-11T20:50:58.221Z,98807.00
2019-02-11T20:53:35.103Z,98786.00
2019-02-11T20:56:11.822Z,98794.00
2019-02-11T20:58:48.540Z,98812.00
2019-02-11T21:01:25.328Z,98834.00
2019-02-11T21:04:02.096Z,98828.00
2019-02-11T21:06:38.891Z,98812.00
2019-02-11T21:09:15.645Z,98843.00
2019-02-11T21:11:52.638Z,98819.00
2019-02-11T21:14:30.646Z,98825.00
2019-02-11T21:17:07.419Z,98838.00
2019-02-11T21:19:44.297Z,98818.00
2019-02-11T21:22:21.175Z,98826.00
2019-02-11T21:24:58.045Z,98826.00
2019-02-11T21:27:34.822Z,98810.00
2019-02-11T21:30:14.551Z,98824.00
2019-02-11T21:32:51.343Z,98815.00
2019-02-11T21:35:28.123Z,98818.00
2019-02-11T21:38:04.809Z,98825.00
2019-02-11T21:40:41.833Z,98836.00
2019-02-11T21:43:18.640Z,98832.00
2019-02-11T21:45:55.433Z,98832.00
2019-02-11T21:48:32.508Z,98811.00
2019-02-11T21:51:09.173Z,98794.00
2019-02-11T21:53:46.062Z,98801.00
2019-02-11T21:56:22.839Z,98794.00
2019-02-11T21:58:59.617Z,98785.00
2019-02-11T22:01:36.396Z,98788.00
2019-02-11T22:04:13.161Z,98782.00
2019-02-11T22:06:49.929Z,98779.00
2019-02-11T22:09:26.716Z,98798.00
2019-02-11T22:12:03.521Z,98794.00
2019-02-11T22:14:40.264Z,98796.00
2019-02-11T22:17:17.968Z,98811.00
2019-02-11T22:19:54.947Z,98799.00
2019-02-11T22:22:31.710Z,98802.00
2019-02-11T22:25:11.122Z,98794.00
2019-02-11T22:27:47.841Z,98810.00
2019-02-11T22:30:25.327Z,98814.00
2019-02-11T22:33:02.191Z,98810.00
2019-02-11T22:35:38.966Z,98813.00
2019-02-11T22:38:15.723Z,98810.00
2019-02-11T22:40:52.531Z,98814.00
2019-02-11T22:43:29.297Z,98826.00
2019-02-11T22:46:06.073Z,98827.00
2019-02-11T22:48:42.849Z,98831.00
2019-02-11T22:51:21.071Z,98834.00
2019-02-11T22:53:57.854Z,98848.00
2019-02-11T22:56:34.602Z,98855.00
2019-02-11T22:59:11.384Z,98869.00
2019-02-11T23:01:48.673Z,98857.00
2019-02-11T23:04:25.462Z,98866.00
2019-02-11T23:07:02.218Z,98859.00
2019-02-11T23:09:38.997Z,98878.00
2019-02-11T23:12:16.185Z,98877.00
2019-02-11T23:14:52.956Z,98880.00
2019-02-11T23:17:29.745Z,98891.00
2019-02-11T23:20:08.499Z,98892.00
2019-02-11T23:22:45.344Z,98901.00
2019-02-11T23:25:22.113Z,98913.00
2019-02-11T23:27:58.892Z,98925.00
2019-02-11T23:30:35.548Z,98941.00
2019-02-11T23:33:12.337Z,98963.00
2019-02-11T23:35:49.102Z,98983.00
2019-02-11T23:38:25.879Z,98963.00
2019-02-11T23:41:02.778Z,98971.00
2019-02-11T23:43:39.648Z,98975.00
2019-02-11T23:46:16.420Z,99000.00
2019-02-11T23:48:53.199Z,98995.00
2019-02-11T23:51:31.000Z,99013.00
2019-02-11T23:54:07.775Z,99031.00
2019-02-11T23:56:44.534Z,99034.00
2019-02-11T23:59:21.311Z,99040.00
